PWSweather.com
Personal Weather Stations
Station Observations
ITROMSTR4
From Fagereng Towards West Sandnessundet, TromsoeNO 9013

From Fagereng Towards West SandnessundetTromsoeNO 9013

Lat: 69.644853, Lon: 18.908345

Elevation: 150

Station Type: WH-1080

http://www.hugooien.no/?go=weather

Latest ConditionsUpdated 5:10:00 PM GMT+01:01 Monday, Oct 15, 2018
Currently Today's Max Today's Min Today's Average
Temperature 45.5°F7.5°C 47.3°F8.5°C 42.1°F5.6°C 44.8°F7.1°C
Dew Point 34.8°F1.6°C 41.4°F5.2°C 34.5°F1.4°C 37.9°F3.3°C
Winds 10.2 mph S16.4 kmh S 15.6 mph -25.1 kmh - - 7.5 mph 12.1 kmh
Wind Gusts 18.3 mph29.5 kmh 29.8 mph48.0 kmh - -
Humidity 66% 85% 63% 77%
Pressure 30.13 in1020.3 mb 30.13 in1020.3 mb 29.83 in1010.2 mb -
Precipitation - 0.11 in2.8 mm - -
Hour Temp Dew Point Humidity Winds Wind Gusts Pressure Precip Precip Rate Daily Precip Total
05:10 PM 45.5°F7.5°C 34.8°F1.6°C 66% 10.2 mph S16.4 kmh S 18.3 mph29.5 kmh 30.13 in1020.3 mb 0.00 in0.0 mm 0.00 in0.0 mm 0.11 in2.8 mm
05:05 PM 45.7°F7.6°C 35.0°F1.7°C 66% 9.3 mph S15.0 kmh S 18.3 mph29.5 kmh 30.13 in1020.3 mb 0.00 in0.0 mm 0.00 in0.0 mm 0.11 in2.8 mm
05:00 PM 45.7°F7.6°C 35.0°F1.7°C 66% 10.0 mph S16.1 kmh S 18.3 mph29.5 kmh 30.13 in1020.3 mb 0.00 in0.0 mm 0.00 in0.0 mm 0.11 in2.8 mm
04:55 PM 45.9°F7.7°C 34.8°F1.6°C 65% 10.8 mph S17.4 kmh S 18.3 mph29.5 kmh 30.13 in1020.3 mb 0.00 in0.0 mm 0.00 in0.0 mm 0.11 in2.8 mm
04:50 PM 45.9°F7.7°C 34.8°F1.6°C 65% 11.2 mph S18.0 kmh S 18.3 mph29.5 kmh 30.13 in1020.3 mb 0.00 in0.0 mm 0.00 in0.0 mm 0.11 in2.8 mm
04:45 PM 45.9°F7.7°C 34.8°F1.6°C 65% 12.0 mph S19.3 kmh S 18.3 mph29.5 kmh 30.13 in1020.3 mb 0.00 in0.0 mm 0.00 in0.0 mm 0.11 in2.8 mm
04:40 PM 45.7°F7.6°C 35.0°F1.7°C 66% 10.5 mph S16.9 kmh S 15.9 mph25.6 kmh 30.13 in1020.3 mb 0.00 in0.0 mm 0.00 in0.0 mm 0.11 in2.8 mm
04:35 PM 45.7°F7.6°C 35.4°F1.9°C 67% 8.5 mph S13.7 kmh S 15.9 mph25.6 kmh 30.13 in1020.3 mb 0.00 in0.0 mm 0.00 in0.0 mm 0.11 in2.8 mm
04:30 PM 45.7°F7.6°C 35.4°F1.9°C 67% 8.2 mph S13.2 kmh S 15.9 mph25.6 kmh 30.13 in1020.3 mb 0.00 in0.0 mm 0.00 in0.0 mm 0.11 in2.8 mm
04:25 PM 45.7°F7.6°C 35.7°F2.1°C 68% 9.1 mph SSW14.6 kmh SSW 17.4 mph28.0 kmh 30.13 in1020.3 mb 0.00 in0.0 mm 0.00 in0.0 mm 0.11 in2.8 mm
04:20 PM 45.9°F7.7°C 35.5°F1.9°C 67% 9.9 mph S15.9 kmh S 17.4 mph28.0 kmh 30.13 in1020.3 mb 0.00 in0.0 mm 0.00 in0.0 mm 0.11 in2.8 mm
04:15 PM 45.9°F7.7°C 35.2°F1.8°C 66% 9.3 mph S15.0 kmh S 16.8 mph27.0 kmh 30.13 in1020.3 mb 0.00 in0.0 mm 0.00 in0.0 mm 0.11 in2.8 mm
04:10 PM 45.9°F7.7°C 35.2°F1.8°C 66% 9.9 mph SSW15.9 kmh SSW 16.8 mph27.0 kmh 30.13 in1020.3 mb 0.00 in0.0 mm 0.00 in0.0 mm 0.11 in2.8 mm
04:05 PM 45.9°F7.7°C 36.3°F2.4°C 69% 10.3 mph SSW16.6 kmh SSW 17.4 mph28.0 kmh 30.13 in1020.3 mb 0.00 in0.0 mm 0.00 in0.0 mm 0.11 in2.8 mm
04:00 PM 46.0°F7.8°C 35.3°F1.8°C 66% 10.1 mph S16.3 kmh S 17.4 mph28.0 kmh 30.13 in1020.3 mb 0.00 in0.0 mm 0.00 in0.0 mm 0.11 in2.8 mm
03:55 PM 46.0°F7.8°C 35.3°F1.8°C 66% 11.2 mph S18.0 kmh S 16.8 mph27.0 kmh 30.13 in1020.3 mb 0.00 in0.0 mm 0.00 in0.0 mm 0.11 in2.8 mm
03:50 PM 46.2°F7.9°C 34.7°F1.5°C 64% 11.2 mph S18.0 kmh S 16.8 mph27.0 kmh 30.13 in1020.3 mb 0.00 in0.0 mm 0.00 in0.0 mm 0.11 in2.8 mm
03:45 PM 46.2°F7.9°C 34.7°F1.5°C 64% 8.9 mph S14.3 kmh S 15.9 mph25.6 kmh 30.12 in1020.0 mb 0.00 in0.0 mm 0.00 in0.0 mm 0.11 in2.8 mm
03:40 PM 46.2°F7.9°C 35.1°F1.7°C 65% 8.7 mph S14.0 kmh S 15.9 mph25.6 kmh 30.12 in1020.0 mb 0.00 in0.0 mm 0.00 in0.0 mm 0.11 in2.8 mm
03:35 PM 46.4°F8.0°C 34.9°F1.6°C 64% 9.9 mph S15.9 kmh S 15.9 mph25.6 kmh 30.12 in1020.0 mb 0.00 in0.0 mm 0.00 in0.0 mm 0.11 in2.8 mm
03:30 PM 46.4°F8.0°C 34.9°F1.6°C 64% 10.6 mph SSW17.1 kmh SSW 17.4 mph28.0 kmh 30.12 in1020.0 mb 0.00 in0.0 mm 0.00 in0.0 mm 0.11 in2.8 mm
03:25 PM 46.4°F8.0°C 34.5°F1.4°C 63% 10.4 mph S16.7 kmh S 17.4 mph28.0 kmh 30.12 in1020.0 mb 0.00 in0.0 mm 0.00 in0.0 mm 0.11 in2.8 mm
03:20 PM 46.4°F8.0°C 34.5°F1.4°C 63% 8.2 mph S13.2 kmh S 14.5 mph23.3 kmh 30.13 in1020.3 mb 0.00 in0.0 mm 0.00 in0.0 mm 0.11 in2.8 mm
03:15 PM 46.4°F8.0°C 34.9°F1.6°C 64% 7.7 mph S12.4 kmh S 13.6 mph21.9 kmh 30.12 in1020.0 mb 0.00 in0.0 mm 0.00 in0.0 mm 0.11 in2.8 mm
03:10 PM 46.4°F8.0°C 34.5°F1.4°C 63% 8.1 mph S13.0 kmh S 13.6 mph21.9 kmh 30.12 in1020.0 mb 0.00 in0.0 mm 0.00 in0.0 mm 0.11 in2.8 mm
03:05 PM 46.2°F7.9°C 35.1°F1.7°C 65% 8.5 mph SSW13.7 kmh SSW 16.8 mph27.0 kmh 30.12 in1020.0 mb 0.00 in0.0 mm 0.00 in0.0 mm 0.11 in2.8 mm
03:00 PM 46.2°F7.9°C 35.5°F1.9°C 66% 9.0 mph S14.5 kmh S 16.8 mph27.0 kmh 30.12 in1020.0 mb 0.00 in0.0 mm 0.00 in0.0 mm 0.11 in2.8 mm
02:55 PM 46.2°F7.9°C 34.7°F1.5°C 64% 9.5 mph S15.3 kmh S 15.9 mph25.6 kmh 30.13 in1020.3 mb 0.00 in0.0 mm 0.00 in0.0 mm 0.11 in2.8 mm
02:50 PM 46.0°F7.8°C 34.9°F1.6°C 65% 9.5 mph S15.3 kmh S 16.8 mph27.0 kmh 30.12 in1020.0 mb 0.00 in0.0 mm 0.00 in0.0 mm 0.11 in2.8 mm
02:45 PM 46.0°F7.8°C 35.3°F1.8°C 66% 9.4 mph S15.1 kmh S 16.8 mph27.0 kmh 30.13 in1020.3 mb 0.00 in0.0 mm 0.00 in0.0 mm 0.11 in2.8 mm
02:40 PM 46.0°F7.8°C 35.3°F1.8°C 66% 11.2 mph S18.0 kmh S 19.0 mph30.6 kmh 30.13 in1020.3 mb 0.00 in0.0 mm 0.00 in0.0 mm 0.11 in2.8 mm
02:35 PM 46.0°F7.8°C 35.7°F2.1°C 67% 11.6 mph S18.7 kmh S 22.1 mph35.6 kmh 30.12 in1020.0 mb 0.00 in0.0 mm 0.00 in0.0 mm 0.11 in2.8 mm
02:30 PM 46.0°F7.8°C 36.1°F2.3°C 68% 10.1 mph S16.3 kmh S 22.1 mph35.6 kmh 30.13 in1020.3 mb 0.00 in0.0 mm 0.00 in0.0 mm 0.11 in2.8 mm
02:25 PM 45.9°F7.7°C 35.9°F2.2°C 68% 9.5 mph S15.3 kmh S 19.0 mph30.6 kmh 30.13 in1020.3 mb 0.00 in0.0 mm 0.00 in0.0 mm 0.11 in2.8 mm
02:20 PM 45.9°F7.7°C 35.9°F2.2°C 68% 10.0 mph S16.1 kmh S 19.0 mph30.6 kmh 30.12 in1020.0 mb 0.00 in0.0 mm 0.00 in0.0 mm 0.11 in2.8 mm
02:15 PM 45.9°F7.7°C 35.9°F2.2°C 68% 9.6 mph SSE15.4 kmh SSE 16.8 mph27.0 kmh 30.13 in1020.3 mb 0.00 in0.0 mm 0.00 in0.0 mm 0.11 in2.8 mm
02:10 PM 45.9°F7.7°C 35.5°F1.9°C 67% 9.4 mph S15.1 kmh S 16.8 mph27.0 kmh 30.13 in1020.3 mb 0.00 in0.0 mm 0.00 in0.0 mm 0.11 in2.8 mm
02:05 PM 45.7°F7.6°C 36.1°F2.3°C 69% 10.8 mph S17.4 kmh S 18.3 mph29.5 kmh 30.13 in1020.3 mb 0.00 in0.0 mm 0.00 in0.0 mm 0.11 in2.8 mm
02:00 PM 45.9°F7.7°C 36.3°F2.4°C 69% 11.9 mph S19.2 kmh S 18.3 mph29.5 kmh 30.13 in1020.3 mb 0.00 in0.0 mm 0.00 in0.0 mm 0.11 in2.8 mm
01:55 PM 45.7°F7.6°C 36.5°F2.5°C 70% 10.9 mph S17.5 kmh S 17.4 mph28.0 kmh 30.13 in1020.3 mb 0.00 in0.0 mm 0.00 in0.0 mm 0.11 in2.8 mm
01:50 PM 45.7°F7.6°C 36.5°F2.5°C 70% 10.5 mph S16.9 kmh S 18.3 mph29.5 kmh 30.13 in1020.3 mb 0.00 in0.0 mm 0.00 in0.0 mm 0.11 in2.8 mm
01:45 PM 45.5°F7.5°C 36.3°F2.4°C 70% 10.9 mph S17.5 kmh S 18.3 mph29.5 kmh 30.13 in1020.3 mb 0.00 in0.0 mm 0.00 in0.0 mm 0.11 in2.8 mm
01:40 PM 45.5°F7.5°C 36.3°F2.4°C 70% 11.3 mph S18.2 kmh S 20.6 mph33.2 kmh 30.13 in1020.3 mb 0.00 in0.0 mm 0.00 in0.0 mm 0.11 in2.8 mm
01:35 PM 45.3°F7.4°C 37.9°F3.3°C 75% 12.3 mph S19.8 kmh S 20.6 mph33.2 kmh 30.13 in1020.3 mb 0.00 in0.0 mm 0.00 in0.0 mm 0.11 in2.8 mm
01:30 PM 45.3°F7.4°C 37.9°F3.3°C 75% 12.6 mph S20.3 kmh S 20.6 mph33.2 kmh 30.13 in1020.3 mb 0.00 in0.0 mm 0.00 in0.0 mm 0.11 in2.8 mm
01:25 PM 45.3°F7.4°C 37.9°F3.3°C 75% 14.1 mph S22.7 kmh S 22.8 mph36.7 kmh 30.13 in1020.3 mb 0.00 in0.0 mm 0.00 in0.0 mm 0.11 in2.8 mm
01:20 PM 45.3°F7.4°C 37.9°F3.3°C 75% 13.9 mph S22.4 kmh S 22.8 mph36.7 kmh 30.13 in1020.3 mb 0.00 in0.0 mm 0.00 in0.0 mm 0.11 in2.8 mm
01:15 PM 45.5°F7.5°C 36.7°F2.6°C 71% 12.9 mph S20.8 kmh S 20.6 mph33.2 kmh 30.13 in1020.3 mb 0.00 in0.0 mm 0.00 in0.0 mm 0.11 in2.8 mm
01:10 PM 45.5°F7.5°C 36.7°F2.6°C 71% 13.3 mph SSW21.4 kmh SSW 20.6 mph33.2 kmh 30.13 in1020.3 mb 0.00 in0.0 mm 0.00 in0.0 mm 0.11 in2.8 mm
01:05 PM 45.5°F7.5°C 36.3°F2.4°C 70% 13.1 mph S21.1 kmh S 20.6 mph33.2 kmh 30.12 in1020.0 mb 0.00 in0.0 mm 0.00 in0.0 mm 0.11 in2.8 mm
01:00 PM 45.5°F7.5°C 36.3°F2.4°C 70% 11.4 mph S18.3 kmh S 20.6 mph33.2 kmh 30.12 in1020.0 mb 0.00 in0.0 mm 0.00 in0.0 mm 0.11 in2.8 mm
12:55 PM 45.3°F7.4°C 37.9°F3.3°C 75% 11.7 mph S18.8 kmh S 19.7 mph31.7 kmh 30.12 in1020.0 mb 0.00 in0.0 mm 0.00 in0.0 mm 0.11 in2.8 mm
12:50 PM 45.3°F7.4°C 38.2°F3.4°C 76% 11.6 mph S18.7 kmh S 19.7 mph31.7 kmh 30.12 in1020.0 mb 0.00 in0.0 mm 0.00 in0.0 mm 0.11 in2.8 mm
12:45 PM 45.1°F7.3°C 38.4°F3.6°C 77% 10.0 mph S16.1 kmh S 19.0 mph30.6 kmh 30.12 in1020.0 mb 0.00 in0.0 mm 0.00 in0.0 mm 0.11 in2.8 mm
12:40 PM 45.1°F7.3°C 38.7°F3.7°C 78% 10.3 mph S16.6 kmh S 19.0 mph30.6 kmh 30.12 in1020.0 mb 0.00 in0.0 mm 0.00 in0.0 mm 0.11 in2.8 mm
12:35 PM 45.1°F7.3°C 38.7°F3.7°C 78% 10.1 mph S16.3 kmh S 18.3 mph29.5 kmh 30.12 in1020.0 mb 0.00 in0.0 mm 0.00 in0.0 mm 0.11 in2.8 mm
12:30 PM 45.3°F7.4°C 38.5°F3.6°C 77% 9.5 mph S15.3 kmh S 16.8 mph27.0 kmh 30.12 in1020.0 mb 0.00 in0.0 mm 0.00 in0.0 mm 0.11 in2.8 mm
12:25 PM 45.5°F7.5°C 36.7°F2.6°C 71% 9.8 mph S15.8 kmh S 15.9 mph25.6 kmh 30.12 in1020.0 mb 0.00 in0.0 mm 0.00 in0.0 mm 0.11 in2.8 mm
12:20 PM 45.5°F7.5°C 36.7°F2.6°C 71% 9.5 mph S15.3 kmh S 15.9 mph25.6 kmh 30.11 in1019.6 mb 0.00 in0.0 mm 0.00 in0.0 mm 0.11 in2.8 mm
12:15 PM 45.3°F7.4°C 38.5°F3.6°C 77% 8.7 mph S14.0 kmh S 15.9 mph25.6 kmh 30.12 in1020.0 mb 0.00 in0.0 mm 0.00 in0.0 mm 0.11 in2.8 mm
12:10 PM 45.3°F7.4°C 38.5°F3.6°C 77% 9.5 mph S15.3 kmh S 15.9 mph25.6 kmh 30.11 in1019.6 mb 0.00 in0.0 mm 0.00 in0.0 mm 0.11 in2.8 mm
12:05 PM 45.5°F7.5°C 36.7°F2.6°C 71% 9.7 mph SSW15.6 kmh SSW 13.6 mph21.9 kmh 30.11 in1019.6 mb 0.00 in0.0 mm 0.00 in0.0 mm 0.11 in2.8 mm
12:00 PM 45.5°F7.5°C 36.7°F2.6°C 71% 9.8 mph S15.8 kmh S 14.5 mph23.3 kmh 30.11 in1019.6 mb 0.00 in0.0 mm 0.00 in0.0 mm 0.11 in2.8 mm
11:55 AM 45.7°F7.6°C 36.5°F2.5°C 70% 9.7 mph S15.6 kmh S 14.5 mph23.3 kmh 30.11 in1019.6 mb 0.00 in0.0 mm 0.00 in0.0 mm 0.11 in2.8 mm
11:50 AM 45.9°F7.7°C 37.0°F2.8°C 71% 8.8 mph S14.2 kmh S 15.2 mph24.5 kmh 30.11 in1019.6 mb 0.00 in0.0 mm 0.00 in0.0 mm 0.11 in2.8 mm
11:45 AM 45.9°F7.7°C 37.4°F3.0°C 72% 8.4 mph SW13.5 kmh SW 15.2 mph24.5 kmh 30.11 in1019.6 mb 0.00 in0.0 mm 0.00 in0.0 mm 0.11 in2.8 mm
11:40 AM 45.9°F7.7°C 37.4°F3.0°C 72% 8.2 mph SW13.2 kmh SW 14.5 mph23.3 kmh 30.11 in1019.6 mb 0.00 in0.0 mm 0.00 in0.0 mm 0.11 in2.8 mm
11:35 AM 45.0°F7.2°C 38.8°F3.8°C 79% 8.6 mph S13.8 kmh S 15.2 mph24.5 kmh 30.11 in1019.6 mb 0.00 in0.0 mm 0.00 in0.0 mm 0.11 in2.8 mm
11:30 AM 45.0°F7.2°C 39.2°F4.0°C 80% 9.5 mph S15.3 kmh S 15.2 mph24.5 kmh 30.10 in1019.3 mb 0.01 in0.3 mm 0.00 in0.0 mm 0.11 in2.8 mm
11:25 AM 44.8°F7.1°C 39.0°F3.9°C 80% 10.3 mph S16.6 kmh S 18.3 mph29.5 kmh 30.10 in1019.3 mb 0.01 in0.3 mm 0.00 in0.0 mm 0.11 in2.8 mm
11:20 AM 44.8°F7.1°C 39.0°F3.9°C 80% 12.3 mph SSW19.8 kmh SSW 22.1 mph35.6 kmh 30.10 in1019.3 mb 0.01 in0.3 mm 0.00 in0.0 mm 0.11 in2.8 mm
11:15 AM 44.8°F7.1°C 38.7°F3.7°C 79% 14.7 mph SSW23.7 kmh SSW 22.1 mph35.6 kmh 30.10 in1019.3 mb 0.01 in0.3 mm 0.00 in0.0 mm 0.11 in2.8 mm
11:10 AM 44.8°F7.1°C 38.7°F3.7°C 79% 15.6 mph SSW25.1 kmh SSW 22.1 mph35.6 kmh 30.09 in1019.0 mb 0.01 in0.3 mm 0.00 in0.0 mm 0.11 in2.8 mm
11:05 AM 44.8°F7.1°C 38.7°F3.7°C 79% 12.7 mph S20.4 kmh S 21.3 mph34.3 kmh 30.09 in1019.0 mb 0.01 in0.3 mm 0.00 in0.0 mm 0.11 in2.8 mm
11:00 AM 44.6°F7.0°C 38.8°F3.8°C 80% 9.2 mph S14.8 kmh S 19.7 mph31.7 kmh 30.09 in1019.0 mb 0.01 in0.3 mm 0.00 in0.0 mm 0.11 in2.8 mm
10:55 AM 44.6°F7.0°C 38.8°F3.8°C 80% 8.9 mph S14.3 kmh S 14.5 mph23.3 kmh 30.08 in1018.6 mb 0.01 in0.3 mm 0.00 in0.0 mm 0.11 in2.8 mm
10:50 AM 44.8°F7.1°C 39.0°F3.9°C 80% 9.0 mph S14.5 kmh S 15.2 mph24.5 kmh 30.08 in1018.6 mb 0.01 in0.3 mm 0.00 in0.0 mm 0.11 in2.8 mm
10:45 AM 44.6°F7.0°C 38.8°F3.8°C 80% 9.7 mph SSW15.6 kmh SSW 19.0 mph30.6 kmh 30.08 in1018.6 mb 0.01 in0.3 mm 0.00 in0.0 mm 0.11 in2.8 mm
10:40 AM 44.4°F6.9°C 38.6°F3.7°C 80% 13.1 mph SSW21.1 kmh SSW 23.5 mph37.8 kmh 30.08 in1018.6 mb 0.01 in0.3 mm 0.00 in0.0 mm 0.11 in2.8 mm
10:35 AM 44.4°F6.9°C 38.6°F3.7°C 80% 14.1 mph S22.7 kmh S 23.5 mph37.8 kmh 30.08 in1018.6 mb 0.01 in0.3 mm 0.12 in3.0 mm 0.11 in2.8 mm
10:30 AM 44.6°F7.0°C 38.2°F3.4°C 78% 11.6 mph S18.7 kmh S 21.3 mph34.3 kmh 30.08 in1018.6 mb 0.00 in0.0 mm 0.00 in0.0 mm 0.09 in2.3 mm
10:25 AM 44.8°F7.1°C 38.0°F3.3°C 77% 11.8 mph S19.0 kmh S 21.3 mph34.3 kmh 30.07 in1018.3 mb 0.00 in0.0 mm 0.00 in0.0 mm 0.09 in2.3 mm
10:20 AM 44.8°F7.1°C 38.0°F3.3°C 77% 13.0 mph SSW20.9 kmh SSW 18.3 mph29.5 kmh 30.07 in1018.3 mb 0.00 in0.0 mm 0.00 in0.0 mm 0.09 in2.3 mm
10:15 AM 44.8°F7.1°C 38.0°F3.3°C 77% 11.8 mph SSW19.0 kmh SSW 18.3 mph29.5 kmh 30.07 in1018.3 mb 0.00 in0.0 mm 0.00 in0.0 mm 0.09 in2.3 mm
10:10 AM 44.8°F7.1°C 37.7°F3.2°C 76% 10.1 mph SSW16.3 kmh SSW 18.3 mph29.5 kmh 30.06 in1017.9 mb 0.00 in0.0 mm 0.00 in0.0 mm 0.09 in2.3 mm
10:05 AM 44.8°F7.1°C 38.0°F3.3°C 77% 10.3 mph SSW16.6 kmh SSW 18.3 mph29.5 kmh 30.06 in1017.9 mb 0.00 in0.0 mm 0.00 in0.0 mm 0.09 in2.3 mm
10:00 AM 44.6°F7.0°C 37.8°F3.2°C 77% 9.6 mph SSW15.4 kmh SSW 15.9 mph25.6 kmh 30.06 in1017.9 mb 0.00 in0.0 mm 0.00 in0.0 mm 0.09 in2.3 mm
09:55 AM 44.6°F7.0°C 37.8°F3.2°C 77% 9.0 mph SW14.5 kmh SW 16.8 mph27.0 kmh 30.06 in1017.9 mb 0.00 in0.0 mm 0.00 in0.0 mm 0.09 in2.3 mm
09:50 AM 44.6°F7.0°C 37.8°F3.2°C 77% 9.0 mph SW14.5 kmh SW 16.8 mph27.0 kmh 30.06 in1017.9 mb 0.00 in0.0 mm 0.00 in0.0 mm 0.09 in2.3 mm
09:45 AM 45.1°F7.3°C 38.4°F3.6°C 77% 7.5 mph SW12.1 kmh SW 10.7 mph17.2 kmh 30.06 in1017.9 mb 0.00 in0.0 mm 0.00 in0.0 mm 0.09 in2.3 mm
09:40 AM 45.1°F7.3°C 38.4°F3.6°C 77% 7.4 mph SW11.9 kmh SW 15.2 mph24.5 kmh 30.05 in1017.6 mb 0.00 in0.0 mm 0.00 in0.0 mm 0.09 in2.3 mm
09:35 AM 45.1°F7.3°C 38.7°F3.7°C 78% 8.9 mph SSW14.3 kmh SSW 16.8 mph27.0 kmh 30.06 in1017.9 mb 0.00 in0.0 mm 0.00 in0.0 mm 0.09 in2.3 mm
09:30 AM 44.6°F7.0°C 38.5°F3.6°C 79% 11.2 mph SSW18.0 kmh SSW 19.0 mph30.6 kmh 30.05 in1017.6 mb 0.00 in0.0 mm 0.00 in0.0 mm 0.09 in2.3 mm
09:25 AM 44.1°F6.7°C 38.3°F3.5°C 80% 12.4 mph S20.0 kmh S 19.0 mph30.6 kmh 30.05 in1017.6 mb 0.00 in0.0 mm 0.00 in0.0 mm 0.09 in2.3 mm
09:20 AM 43.3°F6.3°C 37.6°F3.1°C 80% 11.6 mph S18.7 kmh S 19.0 mph30.6 kmh 30.05 in1017.6 mb 0.00 in0.0 mm 0.00 in0.0 mm 0.09 in2.3 mm
09:15 AM 42.8°F6.0°C 37.4°F3.0°C 81% 9.6 mph S15.4 kmh S 15.9 mph25.6 kmh 30.04 in1017.3 mb 0.00 in0.0 mm 0.00 in0.0 mm 0.09 in2.3 mm
09:10 AM 42.8°F6.0°C 37.7°F3.2°C 82% 9.1 mph SSE14.6 kmh SSE 14.5 mph23.3 kmh 30.04 in1017.3 mb 0.00 in0.0 mm 0.00 in0.0 mm 0.09 in2.3 mm
09:05 AM 42.8°F6.0°C 37.7°F3.2°C 82% 8.9 mph S14.3 kmh S 14.5 mph23.3 kmh 30.04 in1017.3 mb 0.00 in0.0 mm 0.00 in0.0 mm 0.09 in2.3 mm
09:00 AM 42.3°F5.7°C 37.2°F2.9°C 82% 7.9 mph S12.7 kmh S 12.1 mph19.5 kmh 30.04 in1017.3 mb 0.00 in0.0 mm 0.00 in0.0 mm 0.09 in2.3 mm
08:55 AM 42.1°F5.6°C 37.0°F2.8°C 82% 7.3 mph S11.7 kmh S 12.1 mph19.5 kmh 30.04 in1017.3 mb 0.00 in0.0 mm 0.00 in0.0 mm 0.09 in2.3 mm
08:50 AM 42.1°F5.6°C 36.7°F2.6°C 81% 9.1 mph SSW14.6 kmh SSW 28.9 mph46.5 kmh 30.04 in1017.3 mb 0.00 in0.0 mm 0.00 in0.0 mm 0.09 in2.3 mm
08:45 AM 42.4°F5.8°C 37.0°F2.8°C 81% 15.3 mph SW24.6 kmh SW 29.8 mph48.0 kmh 30.04 in1017.3 mb 0.00 in0.0 mm 0.00 in0.0 mm 0.09 in2.3 mm
08:40 AM 43.7°F6.5°C 37.9°F3.3°C 80% 15.6 mph SW25.1 kmh SW 29.8 mph48.0 kmh 30.04 in1017.3 mb 0.00 in0.0 mm 0.00 in0.0 mm 0.09 in2.3 mm
08:35 AM 44.4°F6.9°C 38.6°F3.7°C 80% 12.0 mph SSW19.3 kmh SSW 19.0 mph30.6 kmh 30.04 in1017.3 mb 0.00 in0.0 mm 0.00 in0.0 mm 0.09 in2.3 mm
08:30 AM 44.4°F6.9°C 38.6°F3.7°C 80% 11.3 mph S18.2 kmh S 19.0 mph30.6 kmh 30.04 in1017.3 mb 0.00 in0.0 mm 0.00 in0.0 mm 0.09 in2.3 mm
08:25 AM 44.2°F6.8°C 38.5°F3.6°C 80% 10.7 mph SSW17.2 kmh SSW 18.3 mph29.5 kmh 30.03 in1016.9 mb 0.00 in0.0 mm 0.00 in0.0 mm 0.09 in2.3 mm
08:20 AM 44.1°F6.7°C 38.3°F3.5°C 80% 10.6 mph SSW17.1 kmh SSW 18.3 mph29.5 kmh 30.02 in1016.6 mb 0.00 in0.0 mm 0.00 in0.0 mm 0.09 in2.3 mm
08:15 AM 44.1°F6.7°C 38.3°F3.5°C 80% 10.5 mph S16.9 kmh S 16.8 mph27.0 kmh 30.02 in1016.6 mb 0.00 in0.0 mm 0.00 in0.0 mm 0.09 in2.3 mm
08:10 AM 44.1°F6.7°C 38.3°F3.5°C 80% 10.7 mph S17.2 kmh S 16.8 mph27.0 kmh 30.02 in1016.6 mb 0.00 in0.0 mm 0.00 in0.0 mm 0.09 in2.3 mm
08:05 AM 44.1°F6.7°C 38.6°F3.7°C 81% 11.5 mph S18.5 kmh S 17.4 mph28.0 kmh 30.02 in1016.6 mb 0.00 in0.0 mm 0.00 in0.0 mm 0.09 in2.3 mm
08:00 AM 44.1°F6.7°C 38.3°F3.5°C 80% 10.2 mph S16.4 kmh S 17.4 mph28.0 kmh 30.02 in1016.6 mb 0.00 in0.0 mm 0.00 in0.0 mm 0.09 in2.3 mm
07:55 AM 43.9°F6.6°C 38.4°F3.6°C 81% 9.1 mph S14.6 kmh S 14.5 mph23.3 kmh 30.02 in1016.6 mb 0.00 in0.0 mm 0.00 in0.0 mm 0.09 in2.3 mm
07:50 AM 43.9°F6.6°C 38.4°F3.6°C 81% 9.4 mph S15.1 kmh S 14.5 mph23.3 kmh 30.02 in1016.6 mb 0.00 in0.0 mm 0.00 in0.0 mm 0.09 in2.3 mm
07:45 AM 43.9°F6.6°C 38.4°F3.6°C 81% 9.3 mph S15.0 kmh S 14.5 mph23.3 kmh 30.02 in1016.6 mb 0.00 in0.0 mm 0.00 in0.0 mm 0.09 in2.3 mm
07:40 AM 43.9°F6.6°C 38.4°F3.6°C 81% 9.2 mph S14.8 kmh S 13.6 mph21.9 kmh 30.01 in1016.3 mb 0.00 in0.0 mm 0.00 in0.0 mm 0.09 in2.3 mm
07:35 AM 43.9°F6.6°C 38.4°F3.6°C 81% 9.1 mph S14.6 kmh S 13.0 mph20.9 kmh 30.01 in1016.3 mb 0.00 in0.0 mm 0.00 in0.0 mm 0.09 in2.3 mm
07:30 AM 43.9°F6.6°C 38.7°F3.7°C 82% 9.4 mph S15.1 kmh S 15.2 mph24.5 kmh 30.01 in1016.3 mb 0.00 in0.0 mm 0.00 in0.0 mm 0.09 in2.3 mm
07:25 AM 43.7°F6.5°C 38.6°F3.7°C 82% 9.2 mph S14.8 kmh S 15.2 mph24.5 kmh 30.01 in1016.3 mb 0.00 in0.0 mm 0.00 in0.0 mm 0.09 in2.3 mm
07:20 AM 43.5°F6.4°C 38.1°F3.4°C 81% 9.3 mph SSE15.0 kmh SSE 14.5 mph23.3 kmh 30.00 in1015.9 mb 0.00 in0.0 mm 0.00 in0.0 mm 0.09 in2.3 mm
07:15 AM 43.5°F6.4°C 38.1°F3.4°C 81% 9.0 mph S14.5 kmh S 14.5 mph23.3 kmh 30.01 in1016.3 mb 0.01 in0.3 mm 0.00 in0.0 mm 0.09 in2.3 mm
07:10 AM 43.5°F6.4°C 38.4°F3.6°C 82% 9.2 mph S14.8 kmh S 14.5 mph23.3 kmh 30.01 in1016.3 mb 0.01 in0.3 mm 0.00 in0.0 mm 0.09 in2.3 mm
07:05 AM 43.7°F6.5°C 38.6°F3.7°C 82% 8.8 mph S14.2 kmh S 13.0 mph20.9 kmh 30.01 in1016.3 mb 0.01 in0.3 mm 0.00 in0.0 mm 0.09 in2.3 mm
07:00 AM 43.7°F6.5°C 38.6°F3.7°C 82% 7.3 mph S11.7 kmh S 12.1 mph19.5 kmh 30.00 in1015.9 mb 0.01 in0.3 mm 0.00 in0.0 mm 0.09 in2.3 mm
06:55 AM 43.7°F6.5°C 38.6°F3.7°C 82% 7.7 mph S12.4 kmh S 13.0 mph20.9 kmh 30.00 in1015.9 mb 0.01 in0.3 mm 0.00 in0.0 mm 0.09 in2.3 mm
06:50 AM 43.7°F6.5°C 38.6°F3.7°C 82% 8.0 mph S12.9 kmh S 13.0 mph20.9 kmh 30.00 in1015.9 mb 0.01 in0.3 mm 0.00 in0.0 mm 0.09 in2.3 mm
06:45 AM 43.7°F6.5°C 38.6°F3.7°C 82% 7.2 mph S11.6 kmh S 13.0 mph20.9 kmh 30.00 in1015.9 mb 0.01 in0.3 mm 0.00 in0.0 mm 0.09 in2.3 mm
06:40 AM 43.5°F6.4°C 38.4°F3.6°C 82% 7.7 mph S12.4 kmh S 14.5 mph23.3 kmh 30.00 in1015.9 mb 0.01 in0.3 mm 0.00 in0.0 mm 0.09 in2.3 mm
06:35 AM 43.5°F6.4°C 38.7°F3.7°C 83% 8.4 mph S13.5 kmh S 14.5 mph23.3 kmh 30.00 in1015.9 mb 0.01 in0.3 mm 0.00 in0.0 mm 0.09 in2.3 mm
06:30 AM 43.3°F6.3°C 38.5°F3.6°C 83% 7.4 mph S11.9 kmh S 11.4 mph18.3 kmh 30.00 in1015.9 mb 0.01 in0.3 mm 0.00 in0.0 mm 0.09 in2.3 mm
06:25 AM 43.3°F6.3°C 38.5°F3.6°C 83% 6.2 mph SSE10.0 kmh SSE 10.7 mph17.2 kmh 30.00 in1015.9 mb 0.01 in0.3 mm 0.00 in0.0 mm 0.09 in2.3 mm
06:20 AM 43.5°F6.4°C 38.4°F3.6°C 82% 5.2 mph SSE8.4 kmh SSE 9.8 mph15.8 kmh 30.00 in1015.9 mb 0.01 in0.3 mm 0.12 in3.0 mm 0.09 in2.3 mm
06:15 AM 43.3°F6.3°C 38.2°F3.4°C 82% 4.4 mph SSE7.1 kmh SSE 6.9 mph11.1 kmh 30.00 in1015.9 mb 0.00 in0.0 mm 0.00 in0.0 mm 0.08 in2.0 mm
06:10 AM 43.2°F6.2°C 37.7°F3.2°C 81% 3.8 mph SE6.1 kmh SE 6.9 mph11.1 kmh 29.99 in1015.6 mb 0.00 in0.0 mm 0.00 in0.0 mm 0.08 in2.0 mm
06:05 AM 43.2°F6.2°C 37.7°F3.2°C 81% 3.5 mph SE5.6 kmh SE 6.0 mph9.7 kmh 29.99 in1015.6 mb 0.00 in0.0 mm 0.00 in0.0 mm 0.08 in2.0 mm
06:00 AM 43.2°F6.2°C 37.7°F3.2°C 81% 3.7 mph SE6.0 kmh SE 6.0 mph9.7 kmh 29.99 in1015.6 mb 0.00 in0.0 mm 0.00 in0.0 mm 0.08 in2.0 mm
05:55 AM 43.0°F6.1°C 37.9°F3.3°C 82% 3.7 mph SE6.0 kmh SE 6.0 mph9.7 kmh 29.99 in1015.6 mb 0.00 in0.0 mm 0.00 in0.0 mm 0.08 in2.0 mm
05:50 AM 43.0°F6.1°C 37.9°F3.3°C 82% 4.0 mph SE6.4 kmh SE 6.0 mph9.7 kmh 29.98 in1015.2 mb 0.00 in0.0 mm 0.00 in0.0 mm 0.08 in2.0 mm
05:45 AM 42.8°F6.0°C 37.7°F3.2°C 82% 4.0 mph SE6.4 kmh SE 6.0 mph9.7 kmh 29.98 in1015.2 mb 0.00 in0.0 mm 0.00 in0.0 mm 0.08 in2.0 mm
05:40 AM 42.6°F5.9°C 37.8°F3.2°C 83% 3.8 mph ESE6.1 kmh ESE 6.0 mph9.7 kmh 29.98 in1015.2 mb 0.00 in0.0 mm 0.00 in0.0 mm 0.08 in2.0 mm
05:35 AM 42.6°F5.9°C 37.8°F3.2°C 83% 3.6 mph ESE5.8 kmh ESE 6.0 mph9.7 kmh 29.98 in1015.2 mb 0.00 in0.0 mm 0.00 in0.0 mm 0.08 in2.0 mm
05:30 AM 42.6°F5.9°C 37.8°F3.2°C 83% 2.9 mph SE4.7 kmh SE 5.4 mph8.7 kmh 29.98 in1015.2 mb 0.00 in0.0 mm 0.00 in0.0 mm 0.08 in2.0 mm
05:25 AM 42.4°F5.8°C 37.7°F3.2°C 83% 2.3 mph SE3.7 kmh SE 3.8 mph6.1 kmh 29.98 in1015.2 mb 0.00 in0.0 mm 0.00 in0.0 mm 0.08 in2.0 mm
05:20 AM 42.6°F5.9°C 37.8°F3.2°C 83% 2.0 mph E3.2 kmh E 3.8 mph6.1 kmh 29.97 in1014.9 mb 0.00 in0.0 mm 0.00 in0.0 mm 0.08 in2.0 mm
05:15 AM 42.6°F5.9°C 37.5°F3.1°C 82% 1.9 mph ESE3.1 kmh ESE 3.8 mph6.1 kmh 29.98 in1015.2 mb 0.00 in0.0 mm 0.00 in0.0 mm 0.08 in2.0 mm
05:10 AM 42.8°F6.0°C 37.7°F3.2°C 82% 1.3 mph ESE2.1 kmh ESE 3.8 mph6.1 kmh 29.97 in1014.9 mb 0.00 in0.0 mm 0.00 in0.0 mm 0.08 in2.0 mm
05:05 AM 42.8°F6.0°C 37.7°F3.2°C 82% 1.0 mph ENE1.6 kmh ENE 3.1 mph5.0 kmh 29.97 in1014.9 mb 0.00 in0.0 mm 0.00 in0.0 mm 0.08 in2.0 mm
05:00 AM 43.0°F6.1°C 37.6°F3.1°C 81% 1.3 mph N2.1 kmh N 3.1 mph5.0 kmh 29.97 in1014.9 mb 0.00 in0.0 mm 0.00 in0.0 mm 0.08 in2.0 mm
04:55 AM 43.0°F6.1°C 37.6°F3.1°C 81% 1.5 mph NNE2.4 kmh NNE 3.8 mph6.1 kmh 29.96 in1014.6 mb 0.00 in0.0 mm 0.00 in0.0 mm 0.08 in2.0 mm
04:50 AM 42.8°F6.0°C 37.7°F3.2°C 82% 1.5 mph NE2.4 kmh NE 3.8 mph6.1 kmh 29.96 in1014.6 mb 0.01 in0.3 mm 0.00 in0.0 mm 0.08 in2.0 mm
04:45 AM 42.8°F6.0°C 37.7°F3.2°C 82% 1.4 mph ENE2.3 kmh ENE 3.1 mph5.0 kmh 29.96 in1014.6 mb 0.01 in0.3 mm 0.00 in0.0 mm 0.08 in2.0 mm
04:40 AM 42.8°F6.0°C 37.4°F3.0°C 81% 1.1 mph NE1.8 kmh NE 2.2 mph3.5 kmh 29.96 in1014.6 mb 0.01 in0.3 mm 0.00 in0.0 mm 0.08 in2.0 mm
04:35 AM 43.0°F6.1°C 37.6°F3.1°C 81% 0.9 mph NE1.4 kmh NE 2.2 mph3.5 kmh 29.96 in1014.6 mb 0.01 in0.3 mm 0.00 in0.0 mm 0.08 in2.0 mm
04:30 AM 43.2°F6.2°C 37.4°F3.0°C 80% 1.5 mph N2.4 kmh N 4.5 mph7.2 kmh 29.96 in1014.6 mb 0.01 in0.3 mm 0.00 in0.0 mm 0.08 in2.0 mm
04:25 AM 43.2°F6.2°C 37.4°F3.0°C 80% 2.9 mph N4.7 kmh N 7.6 mph12.2 kmh 29.96 in1014.6 mb 0.01 in0.3 mm 0.00 in0.0 mm 0.08 in2.0 mm
04:20 AM 43.2°F6.2°C 37.4°F3.0°C 80% 3.5 mph N5.6 kmh N 7.6 mph12.2 kmh 29.96 in1014.6 mb 0.02 in0.5 mm 0.00 in0.0 mm 0.08 in2.0 mm
04:15 AM 43.2°F6.2°C 37.4°F3.0°C 80% 3.4 mph NW5.5 kmh NW 6.9 mph11.1 kmh 29.96 in1014.6 mb 0.02 in0.5 mm 0.00 in0.0 mm 0.08 in2.0 mm
04:10 AM 43.3°F6.3°C 37.6°F3.1°C 80% 4.1 mph NW6.6 kmh NW 8.3 mph13.4 kmh 29.95 in1014.2 mb 0.02 in0.5 mm 0.00 in0.0 mm 0.08 in2.0 mm
04:05 AM 43.5°F6.4°C 38.1°F3.4°C 81% 4.9 mph WNW7.9 kmh WNW 9.2 mph14.8 kmh 29.94 in1013.9 mb 0.02 in0.5 mm 0.00 in0.0 mm 0.08 in2.0 mm
04:00 AM 43.5°F6.4°C 38.1°F3.4°C 81% 4.8 mph WNW7.7 kmh WNW 9.2 mph14.8 kmh 29.94 in1013.9 mb 0.02 in0.5 mm 0.00 in0.0 mm 0.08 in2.0 mm
03:55 AM 43.7°F6.5°C 38.6°F3.7°C 82% 4.2 mph WNW6.8 kmh WNW 7.6 mph12.2 kmh 29.94 in1013.9 mb 0.02 in0.5 mm 0.00 in0.0 mm 0.07 in1.8 mm
03:50 AM 43.9°F6.6°C 38.7°F3.7°C 82% 4.4 mph NW7.1 kmh NW 9.8 mph15.8 kmh 29.94 in1013.9 mb 0.02 in0.5 mm 0.00 in0.0 mm 0.07 in1.8 mm
03:45 AM 43.9°F6.6°C 39.1°F3.9°C 83% 5.1 mph NW8.2 kmh NW 9.8 mph15.8 kmh 29.93 in1013.5 mb 0.02 in0.5 mm 0.00 in0.0 mm 0.07 in1.8 mm
03:40 AM 44.1°F6.7°C 39.2°F4.0°C 83% 4.4 mph NW7.1 kmh NW 9.2 mph14.8 kmh 29.93 in1013.5 mb 0.02 in0.5 mm 0.00 in0.0 mm 0.07 in1.8 mm
03:35 AM 44.1°F6.7°C 39.2°F4.0°C 83% 4.3 mph N6.9 kmh N 10.7 mph17.2 kmh 29.92 in1013.2 mb 0.04 in1.0 mm 0.00 in0.0 mm 0.07 in1.8 mm
03:30 AM 44.1°F6.7°C 39.2°F4.0°C 83% 5.3 mph NW8.5 kmh NW 10.7 mph17.2 kmh 29.92 in1013.2 mb 0.04 in1.0 mm 0.00 in0.0 mm 0.07 in1.8 mm
03:25 AM 44.2°F6.8°C 39.4°F4.1°C 83% 6.0 mph NW9.7 kmh NW 13.0 mph20.9 kmh 29.91 in1012.9 mb 0.04 in1.0 mm 0.24 in6.1 mm 0.07 in1.8 mm
03:20 AM 44.4°F6.9°C 39.9°F4.4°C 84% 5.9 mph NW9.5 kmh NW 13.0 mph20.9 kmh 29.91 in1012.9 mb 0.02 in0.5 mm 0.00 in0.0 mm 0.06 in1.5 mm
03:15 AM 44.6°F7.0°C 40.1°F4.5°C 84% 6.1 mph NW9.8 kmh NW 13.0 mph20.9 kmh 29.90 in1012.5 mb 0.02 in0.5 mm 0.00 in0.0 mm 0.06 in1.5 mm
03:10 AM 44.6°F7.0°C 40.1°F4.5°C 84% 7.2 mph N11.6 kmh N 13.0 mph20.9 kmh 29.91 in1012.9 mb 0.02 in0.5 mm 0.00 in0.0 mm 0.06 in1.5 mm
03:05 AM 44.8°F7.1°C 40.2°F4.6°C 84% 7.7 mph NNW12.4 kmh NNW 13.6 mph21.9 kmh 29.90 in1012.5 mb 0.02 in0.5 mm 0.00 in0.0 mm 0.06 in1.5 mm
03:00 AM 45.0°F7.2°C 40.4°F4.7°C 84% 5.8 mph NW9.3 kmh NW 13.6 mph21.9 kmh 29.90 in1012.5 mb 0.04 in1.0 mm 0.02 in0.5 mm 0.06 in1.5 mm
02:55 AM 45.0°F7.2°C 40.4°F4.7°C 84% 3.9 mph NW6.3 kmh NW 10.7 mph17.2 kmh 29.89 in1012.2 mb 0.02 in0.5 mm 0.00 in0.0 mm 0.05 in1.3 mm
02:50 AM 45.1°F7.3°C 40.9°F4.9°C 85% 3.8 mph NW6.1 kmh NW 10.7 mph17.2 kmh 29.89 in1012.2 mb 0.02 in0.5 mm 0.00 in0.0 mm 0.05 in1.3 mm
02:45 AM 45.1°F7.3°C 40.9°F4.9°C 85% 2.6 mph NW4.2 kmh NW 10.7 mph17.2 kmh 29.89 in1012.2 mb 0.02 in0.5 mm 0.00 in0.0 mm 0.05 in1.3 mm
02:40 AM 45.3°F7.4°C 40.8°F4.9°C 84% 1.5 mph S2.4 kmh S 7.6 mph12.2 kmh 29.89 in1012.2 mb 0.02 in0.5 mm 0.12 in3.0 mm 0.05 in1.3 mm
02:35 AM 45.3°F7.4°C 40.8°F4.9°C 84% 1.7 mph SSE2.7 kmh SSE 4.5 mph7.2 kmh 29.89 in1012.2 mb 0.01 in0.3 mm 0.00 in0.0 mm 0.04 in1.0 mm
02:30 AM 45.3°F7.4°C 40.8°F4.9°C 84% 2.9 mph ENE4.7 kmh ENE 5.4 mph8.7 kmh 29.89 in1012.2 mb 0.01 in0.3 mm 0.00 in0.0 mm 0.04 in1.0 mm
02:25 AM 45.1°F7.3°C 40.6°F4.8°C 84% 3.7 mph NE6.0 kmh NE 5.4 mph8.7 kmh 29.88 in1011.9 mb 0.01 in0.3 mm 0.00 in0.0 mm 0.04 in1.0 mm
02:20 AM 45.1°F7.3°C 40.6°F4.8°C 84% 3.5 mph ENE5.6 kmh ENE 5.4 mph8.7 kmh 29.87 in1011.5 mb 0.01 in0.3 mm 0.00 in0.0 mm 0.04 in1.0 mm
02:15 AM 45.1°F7.3°C 40.6°F4.8°C 84% 2.6 mph ENE4.2 kmh ENE 5.4 mph8.7 kmh 29.88 in1011.9 mb 0.01 in0.3 mm 0.00 in0.0 mm 0.04 in1.0 mm
02:10 AM 45.1°F7.3°C 40.3°F4.6°C 83% 2.2 mph ENE3.5 kmh ENE 4.5 mph7.2 kmh 29.88 in1011.9 mb 0.01 in0.3 mm 0.00 in0.0 mm 0.04 in1.0 mm
02:05 AM 45.3°F7.4°C 40.5°F4.7°C 83% 2.8 mph ENE4.5 kmh ENE 4.5 mph7.2 kmh 29.87 in1011.5 mb 0.01 in0.3 mm 0.12 in3.0 mm 0.04 in1.0 mm
02:00 AM 45.5°F7.5°C 38.7°F3.7°C 77% 1.8 mph ENE2.9 kmh ENE 4.5 mph7.2 kmh 29.87 in1011.5 mb 0.00 in0.0 mm 0.00 in0.0 mm 0.02 in0.5 mm
01:55 AM 45.7°F7.6°C 38.6°F3.7°C 76% 1.1 mph NE1.8 kmh NE 3.1 mph5.0 kmh 29.87 in1011.5 mb 0.00 in0.0 mm 0.00 in0.0 mm 0.02 in0.5 mm
01:50 AM 45.9°F7.7°C 38.7°F3.7°C 76% 1.8 mph E2.9 kmh E 5.4 mph8.7 kmh 29.87 in1011.5 mb 0.01 in0.3 mm 0.00 in0.0 mm 0.02 in0.5 mm
01:45 AM 46.0°F7.8°C 38.6°F3.7°C 75% 2.8 mph E4.5 kmh E 6.0 mph9.7 kmh 29.87 in1011.5 mb 0.01 in0.3 mm 0.00 in0.0 mm 0.02 in0.5 mm
01:40 AM 46.0°F7.8°C 38.6°F3.7°C 75% 2.9 mph NE4.7 kmh NE 6.0 mph9.7 kmh 29.87 in1011.5 mb 0.01 in0.3 mm 0.00 in0.0 mm 0.02 in0.5 mm
01:35 AM 46.0°F7.8°C 38.6°F3.7°C 75% 2.6 mph NNE4.2 kmh NNE 5.4 mph8.7 kmh 29.87 in1011.5 mb 0.01 in0.3 mm 0.00 in0.0 mm 0.02 in0.5 mm
01:30 AM 45.9°F7.7°C 38.7°F3.7°C 76% 2.5 mph NNE4.0 kmh NNE 5.4 mph8.7 kmh 29.87 in1011.5 mb 0.01 in0.3 mm 0.00 in0.0 mm 0.02 in0.5 mm
01:25 AM 45.7°F7.6°C 38.6°F3.7°C 76% 2.3 mph NNE3.7 kmh NNE 5.4 mph8.7 kmh 29.86 in1011.2 mb 0.01 in0.3 mm 0.00 in0.0 mm 0.02 in0.5 mm
01:20 AM 45.7°F7.6°C 38.9°F3.8°C 77% 1.6 mph NE2.6 kmh NE 5.4 mph8.7 kmh 29.86 in1011.2 mb 0.01 in0.3 mm 0.00 in0.0 mm 0.02 in0.5 mm
01:15 AM 45.7°F7.6°C 39.2°F4.0°C 78% 1.6 mph E2.6 kmh E 5.4 mph8.7 kmh 29.86 in1011.2 mb 0.01 in0.3 mm 0.00 in0.0 mm 0.02 in0.5 mm
01:10 AM 45.9°F7.7°C 39.4°F4.1°C 78% 2.1 mph ESE3.4 kmh ESE 5.4 mph8.7 kmh 29.86 in1011.2 mb 0.01 in0.3 mm 0.00 in0.0 mm 0.02 in0.5 mm
01:05 AM 45.9°F7.7°C 39.4°F4.1°C 78% 1.9 mph E3.1 kmh E 5.4 mph8.7 kmh 29.86 in1011.2 mb 0.01 in0.3 mm 0.00 in0.0 mm 0.02 in0.5 mm
01:00 AM 45.9°F7.7°C 39.4°F4.1°C 78% 2.0 mph NE3.2 kmh NE 4.5 mph7.2 kmh 29.86 in1011.2 mb 0.01 in0.3 mm 0.00 in0.0 mm 0.02 in0.5 mm
12:55 AM 46.0°F7.8°C 39.9°F4.4°C 79% 2.1 mph NE3.4 kmh NE 4.5 mph7.2 kmh 29.85 in1010.8 mb 0.01 in0.3 mm 0.12 in3.0 mm 0.02 in0.5 mm
12:50 AM 46.0°F7.8°C 39.9°F4.4°C 79% 2.4 mph NE3.9 kmh NE 5.4 mph8.7 kmh 29.85 in1010.8 mb 0.00 in0.0 mm 0.00 in0.0 mm 0.01 in0.3 mm
12:45 AM 46.4°F8.0°C 40.2°F4.6°C 79% 2.5 mph NE4.0 kmh NE 5.4 mph8.7 kmh 29.84 in1010.5 mb 0.01 in0.3 mm 0.00 in0.0 mm 0.01 in0.3 mm
12:40 AM 46.6°F8.1°C 40.4°F4.7°C 79% 3.0 mph N4.8 kmh N 8.3 mph13.4 kmh 29.85 in1010.8 mb 0.01 in0.3 mm 0.00 in0.0 mm 0.01 in0.3 mm
12:35 AM 46.6°F8.1°C 40.4°F4.7°C 79% 3.0 mph N4.8 kmh N 8.3 mph13.4 kmh 29.84 in1010.5 mb 0.01 in0.3 mm 0.00 in0.0 mm 0.01 in0.3 mm
12:30 AM 46.6°F8.1°C 40.7°F4.8°C 80% 2.0 mph N3.2 kmh N 5.4 mph8.7 kmh 29.84 in1010.5 mb 0.01 in0.3 mm 0.00 in0.0 mm 0.01 in0.3 mm
12:25 AM 46.6°F8.1°C 40.7°F4.8°C 80% 1.5 mph N2.4 kmh N 5.4 mph8.7 kmh 29.84 in1010.5 mb 0.01 in0.3 mm 0.00 in0.0 mm 0.01 in0.3 mm
12:20 AM 46.8°F8.2°C 40.9°F4.9°C 80% 1.1 mph NNE1.8 kmh NNE 4.5 mph7.2 kmh 29.84 in1010.5 mb 0.01 in0.3 mm 0.00 in0.0 mm 0.01 in0.3 mm
12:15 AM 46.8°F8.2°C 40.9°F4.9°C 80% 1.3 mph NE2.1 kmh NE 4.5 mph7.2 kmh 29.83 in1010.2 mb 0.01 in0.3 mm 0.00 in0.0 mm 0.01 in0.3 mm
12:10 AM 46.9°F8.3°C 41.1°F5.1°C 80% 2.8 mph W4.5 kmh W 6.9 mph11.1 kmh 29.83 in1010.2 mb 0.01 in0.3 mm 0.00 in0.0 mm 0.01 in0.3 mm
12:05 AM 46.9°F8.3°C 41.1°F5.1°C 80% 5.1 mph NW8.2 kmh NW 12.1 mph19.5 kmh 29.83 in1010.2 mb 0.01 in0.3 mm 0.00 in0.0 mm 0.01 in0.3 mm
12:00 AM 47.3°F8.5°C 41.4°F5.2°C 80% 5.9 mph NW9.5 kmh NW 12.1 mph19.5 kmh 29.83 in1010.2 mb 0.01 in0.3 mm 0.00 in0.0 mm 0.01 in0.3 mm